Time;durP1;ratioP1;P1;durP2;ratioP2;P2;SDS_P1;SDS_P2;PMS_P1;PMS_P2;Temp;Humidity;BMP_temperature;BMP_pressure;BME280_temperature;BME280_humidity;BME280_pressure;Samples;Min_cycle;Max_cycle;Signal;HPM_P1;HPM_P2
2023/09/28 00:00:58;;;;;;;10.30;5.60;;;16.70;73.60;;;;;;5005890;28;20834;-75
2023/09/28 00:03:24;;;;;;;8.07;5.13;;;16.60;73.60;;;;;;5005884;28;20946;-75
2023/09/28 00:05:50;;;;;;;8.30;5.47;;;16.70;73.20;;;;;;4999912;28;20465;-74
2023/09/28 00:08:16;;;;;;;8.13;5.50;;;16.70;72.60;;;;;;5007393;28;20409;-75
2023/09/28 00:10:42;;;;;;;9.60;5.07;;;16.70;72.70;;;;;;5011576;28;20432;-74
2023/09/28 00:13:08;;;;;;;8.10;5.23;;;16.70;72.60;;;;;;5005675;28;20250;-76
2023/09/28 00:15:34;;;;;;;11.53;5.47;;;16.70;72.90;;;;;;5005028;28;20996;-75
2023/09/28 00:18:00;;;;;;;9.00;6.67;;;16.60;73.30;;;;;;5006915;28;20185;-75
2023/09/28 00:20:27;;;;;;;8.53;5.80;;;16.60;73.30;;;;;;5007337;28;21741;-76
2023/09/28 00:22:56;;;;;;;7.63;5.00;;;16.60;73.60;;;;;;5009735;28;20193;-75
2023/09/28 00:25:23;;;;;;;8.70;5.30;;;16.50;74.00;;;;;;5008675;28;20829;-77
2023/09/28 00:27:50;;;;;;;7.33;5.73;;;16.40;74.00;;;;;;5010607;28;21010;-76
2023/09/28 00:30:20;;;;;;;9.03;5.70;;;16.40;74.20;;;;;;5012961;28;20564;-77
2023/09/28 00:32:53;;;;;;;8.90;5.90;;;16.40;74.30;;;;;;5007956;28;20417;-75
2023/09/28 00:35:20;;;;;;;11.57;6.20;;;16.40;74.00;;;;;;5005844;28;20548;-77
2023/09/28 00:37:49;;;;;;;9.53;5.40;;;16.40;73.60;;;;;;5008964;28;20563;-75
2023/09/28 00:40:20;;;;;;;8.20;5.73;;;16.40;73.70;;;;;;5011377;28;20427;-77
2023/09/28 00:42:50;;;;;;;7.60;5.20;;;16.30;74.00;;;;;;5007972;28;20776;-75
2023/09/28 00:45:17;;;;;;;11.33;6.30;;;16.40;73.90;;;;;;5009074;28;20572;-75
2023/09/28 00:47:42;;;;;;;9.20;5.90;;;16.40;73.70;;;;;;5002421;28;20429;-75
2023/09/28 00:50:15;;;;;;;9.90;5.97;;;16.30;73.90;;;;;;5007003;28;20440;-74
2023/09/28 00:52:42;;;;;;;7.43;5.57;;;16.40;73.70;;;;;;5001609;28;20452;-76
2023/09/28 00:55:09;;;;;;;9.33;6.00;;;16.30;73.60;;;;;;5005434;28;22106;-74
2023/09/28 00:57:38;;;;;;;7.80;5.40;;;16.30;73.60;;;;;;5006402;28;20424;-74
2023/09/28 01:00:18;;;;;;;10.10;5.80;;;16.40;73.50;;;;;;5001464;28;20452;-74
2023/09/28 01:02:44;;;;;;;8.37;6.10;;;16.30;73.50;;;;;;5006213;28;20436;-74
2023/09/28 01:05:10;;;;;;;8.57;5.37;;;16.30;73.60;;;;;;5006882;28;20548;-75
2023/09/28 01:07:35;;;;;;;9.80;6.03;;;16.30;73.60;;;;;;5015907;28;20436;-73
2023/09/28 01:10:01;;;;;;;8.60;5.87;;;16.30;73.60;;;;;;5019514;28;20279;-75
2023/09/28 01:12:30;;;;;;;8.13;5.50;;;16.20;73.60;;;;;;5017145;28;20186;-74
2023/09/28 01:14:58;;;;;;;12.07;6.20;;;16.10;73.90;;;;;;5018905;28;20559;-73
2023/09/28 01:17:23;;;;;;;11.00;5.83;;;16.10;74.00;;;;;;5018515;28;20413;-75
2023/09/28 01:19:49;;;;;;;12.80;6.53;;;16.00;74.20;;;;;;5026477;28;20501;-74
2023/09/28 01:22:15;;;;;;;8.87;5.70;;;16.00;74.50;;;;;;5016958;28;20757;-74
2023/09/28 01:24:41;;;;;;;11.73;6.23;;;16.00;74.50;;;;;;5011963;28;20186;-75
2023/09/28 01:27:07;;;;;;;9.83;6.03;;;16.00;74.20;;;;;;5010486;28;20534;-74
2023/09/28 01:29:32;;;;;;;11.57;5.47;;;16.00;73.90;;;;;;5005227;28;20189;-74
2023/09/28 01:31:58;;;;;;;11.03;5.23;;;16.00;73.70;;;;;;5002785;28;20182;-75
2023/09/28 01:34:23;;;;;;;8.43;5.60;;;16.00;73.60;;;;;;5004120;28;20259;-75
2023/09/28 01:36:49;;;;;;;9.30;5.87;;;16.10;73.90;;;;;;4998125;28;20225;-75
2023/09/28 01:39:15;;;;;;;9.20;5.43;;;16.10;74.00;;;;;;5003305;28;20186;-76
2023/09/28 01:41:42;;;;;;;7.13;5.30;;;16.20;73.90;;;;;;5007107;28;20225;-75
2023/09/28 01:44:08;;;;;;;7.70;5.23;;;16.20;73.60;;;;;;5000523;28;20437;-75
2023/09/28 01:46:34;;;;;;;8.27;5.10;;;16.10;73.50;;;;;;5019975;28;20464;-76
2023/09/28 01:48:59;;;;;;;7.30;5.50;;;16.10;73.70;;;;;;5018737;28;20181;-76
2023/09/28 01:51:25;;;;;;;8.47;5.30;;;16.20;73.70;;;;;;5005697;28;20429;-76
2023/09/28 01:53:51;;;;;;;7.47;5.17;;;16.30;73.60;;;;;;5010451;28;20555;-74
2023/09/28 01:56:18;;;;;;;7.70;5.60;;;16.30;73.50;;;;;;5006144;28;20519;-77
2023/09/28 01:58:44;;;;;;;10.23;5.80;;;16.30;73.50;;;;;;5001923;28;20178;-77
2023/09/28 02:01:19;;;;;;;10.23;5.90;;;16.10;74.00;;;;;;5006811;28;20525;-77
2023/09/28 02:03:45;;;;;;;7.07;5.17;;;16.00;74.30;;;;;;5011527;28;20180;-76
2023/09/28 02:06:11;;;;;;;8.30;5.13;;;15.90;74.80;;;;;;5014597;28;20455;-75
2023/09/28 02:08:36;;;;;;;8.07;5.30;;;15.90;75.20;;;;;;5012258;28;20200;-75
2023/09/28 02:11:03;;;;;;;9.20;6.30;;;15.80;75.50;;;;;;5017181;28;20273;-76
2023/09/28 02:13:28;;;;;;;10.17;6.00;;;15.80;75.80;;;;;;5013635;28;20188;-75
2023/09/28 02:15:54;;;;;;;10.17;5.40;;;15.70;75.90;;;;;;5012302;28;20466;-75
2023/09/28 02:18:19;;;;;;;8.33;5.10;;;15.70;75.90;;;;;;5016210;28;20272;-75
2023/09/28 02:20:45;;;;;;;10.57;5.20;;;15.70;76.10;;;;;;5000246;28;20221;-76
2023/09/28 02:23:10;;;;;;;9.50;5.93;;;15.80;76.10;;;;;;5016005;28;20253;-75
2023/09/28 02:25:36;;;;;;;7.73;5.10;;;15.80;75.50;;;;;;4999736;28;20293;-75
2023/09/28 02:28:02;;;;;;;8.20;5.70;;;15.80;75.90;;;;;;5011859;28;20193;-76
2023/09/28 02:30:27;;;;;;;8.00;5.30;;;15.80;75.70;;;;;;5018054;28;20205;-74
2023/09/28 02:32:56;;;;;;;8.63;5.23;;;15.70;75.90;;;;;;4998962;28;20174;-75
2023/09/28 02:35:21;;;;;;;7.33;5.23;;;15.60;76.20;;;;;;5017836;28;20300;-77
2023/09/28 02:37:48;;;;;;;11.30;5.80;;;15.70;76.20;;;;;;5027363;28;20802;-74
2023/09/28 02:40:15;;;;;;;7.07;5.40;;;15.70;76.10;;;;;;5017217;28;20194;-75
2023/09/28 02:42:44;;;;;;;10.20;6.17;;;15.80;75.40;;;;;;5024168;28;20956;-75
2023/09/28 02:45:13;;;;;;;8.07;5.50;;;15.70;75.70;;;;;;5015111;28;22670;-77
2023/09/28 02:47:40;;;;;;;7.33;5.20;;;15.90;73.90;;;;;;5016583;28;20869;-77
2023/09/28 02:50:09;;;;;;;11.40;5.83;;;15.90;73.30;;;;;;5008867;28;20461;-76
2023/09/28 02:52:36;;;;;;;7.50;5.23;;;15.90;73.20;;;;;;5012570;28;20438;-75
2023/09/28 02:55:06;;;;;;;8.87;5.30;;;15.90;73.30;;;;;;5006467;28;20456;-75
2023/09/28 02:57:32;;;;;;;7.50;5.30;;;15.90;73.50;;;;;;5012915;28;20443;-77
2023/09/28 02:59:58;;;;;;;7.80;5.30;;;16.00;73.70;;;;;;5015910;28;20786;-76
2023/09/28 03:02:23;;;;;;;6.60;5.03;;;16.00;73.60;;;;;;5016453;28;20589;-76
2023/09/28 03:04:49;;;;;;;8.57;6.00;;;16.00;73.70;;;;;;5025994;28;20430;-76
2023/09/28 03:07:15;;;;;;;8.27;5.50;;;16.00;73.70;;;;;;5030517;28;20188;-75
2023/09/28 03:09:40;;;;;;;7.17;5.40;;;16.00;73.60;;;;;;5018511;28;20208;-76
2023/09/28 03:12:07;;;;;;;12.80;5.60;;;16.00;73.60;;;;;;5013144;28;20709;-76
2023/09/28 03:14:32;;;;;;;7.57;4.93;;;15.90;73.90;;;;;;5011882;28;20519;-74
2023/09/28 03:16:59;;;;;;;8.77;5.33;;;16.00;74.00;;;;;;5005598;28;20990;-76
2023/09/28 03:19:25;;;;;;;12.20;6.20;;;16.10;73.90;;;;;;5004272;28;20208;-77
2023/09/28 03:21:51;;;;;;;7.90;5.40;;;16.10;73.70;;;;;;5008715;28;20957;-76
2023/09/28 03:24:16;;;;;;;10.17;5.53;;;16.10;73.20;;;;;;5004330;28;20880;-76
2023/09/28 03:26:42;;;;;;;8.27;5.50;;;16.00;73.60;;;;;;5004679;28;20452;-75
2023/09/28 03:29:08;;;;;;;8.80;5.33;;;16.00;73.60;;;;;;5014001;28;20182;-75
2023/09/28 03:31:34;;;;;;;9.17;5.90;;;16.10;73.30;;;;;;5013687;28;20186;-76
2023/09/28 03:33:59;;;;;;;7.83;4.70;;;16.10;72.90;;;;;;5008823;28;20248;-76
2023/09/28 03:36:25;;;;;;;8.77;5.43;;;15.90;73.30;;;;;;5010042;28;20518;-77
2023/09/28 03:38:51;;;;;;;8.73;5.50;;;15.90;73.70;;;;;;5001842;28;20209;-76
2023/09/28 03:41:17;;;;;;;8.03;5.37;;;15.90;73.90;;;;;;5017149;28;20209;-74
2023/09/28 03:43:44;;;;;;;10.30;6.00;;;16.00;73.60;;;;;;5013173;28;20190;-77
2023/09/28 03:46:11;;;;;;;10.20;5.63;;;15.90;73.90;;;;;;5015556;28;20463;-76
2023/09/28 03:48:36;;;;;;;11.07;6.23;;;15.80;74.50;;;;;;4997687;28;20445;-75
2023/09/28 03:51:02;;;;;;;10.47;5.90;;;15.80;74.80;;;;;;5009708;28;20994;-76
2023/09/28 03:53:28;;;;;;;9.30;5.80;;;15.80;74.90;;;;;;5017044;28;20197;-75
2023/09/28 03:55:54;;;;;;;9.03;6.47;;;15.90;75.10;;;;;;5019878;28;20506;-74
2023/09/28 03:58:20;;;;;;;8.90;5.60;;;15.90;74.80;;;;;;5014063;28;20192;-76
2023/09/28 04:00:46;;;;;;;7.97;5.10;;;15.90;74.50;;;;;;5009597;28;20576;-76
2023/09/28 04:03:11;;;;;;;9.17;5.57;;;16.00;74.60;;;;;;5009916;28;20511;-75
2023/09/28 04:05:38;;;;;;;7.70;5.63;;;16.10;74.30;;;;;;5001835;28;20213;-75
2023/09/28 04:08:04;;;;;;;9.87;5.77;;;16.00;74.30;;;;;;5010419;28;20201;-75
2023/09/28 04:10:31;;;;;;;7.67;5.83;;;16.10;74.30;;;;;;5005112;28;20421;-75
2023/09/28 04:12:57;;;;;;;11.20;5.50;;;16.00;74.50;;;;;;5010350;28;20522;-76
2023/09/28 04:15:23;;;;;;;11.20;5.60;;;15.90;74.50;;;;;;5004248;28;20540;-75
2023/09/28 04:17:49;;;;;;;9.97;5.90;;;16.00;74.60;;;;;;5015863;28;20284;-75
2023/09/28 04:20:14;;;;;;;10.23;5.27;;;16.00;74.90;;;;;;5008099;28;20194;-76
2023/09/28 04:22:40;;;;;;;7.17;5.13;;;15.90;74.80;;;;;;5009847;28;20185;-75
2023/09/28 04:25:07;;;;;;;8.03;5.73;;;16.00;74.30;;;;;;5010237;28;20272;-76
2023/09/28 04:27:32;;;;;;;8.40;5.47;;;16.00;74.20;;;;;;5003880;28;20227;-75
2023/09/28 04:29:58;;;;;;;9.10;6.03;;;16.00;74.20;;;;;;5015681;28;20441;-76
2023/09/28 04:32:23;;;;;;;10.10;5.93;;;15.90;74.20;;;;;;5012737;28;20195;-75
2023/09/28 04:34:50;;;;;;;9.07;5.43;;;15.80;74.50;;;;;;5019610;28;20202;-76
2023/09/28 04:37:19;;;;;;;7.90;5.50;;;15.90;74.60;;;;;;5024548;28;20222;-74
2023/09/28 04:39:45;;;;;;;8.80;5.63;;;15.80;74.60;;;;;;5028035;28;20432;-75
2023/09/28 04:42:12;;;;;;;8.80;5.80;;;15.70;75.10;;;;;;5007495;28;20456;-75
2023/09/28 04:44:39;;;;;;;8.30;6.00;;;15.80;75.40;;;;;;5008650;28;20877;-76
2023/09/28 04:47:05;;;;;;;7.30;5.40;;;15.80;75.20;;;;;;5004092;28;20433;-75
2023/09/28 04:49:30;;;;;;;9.03;6.00;;;15.90;74.90;;;;;;5005172;28;20435;-75
2023/09/28 04:51:56;;;;;;;10.80;5.70;;;15.90;74.90;;;;;;5011621;28;20186;-76
2023/09/28 04:54:22;;;;;;;9.57;5.87;;;15.90;74.90;;;;;;4996037;28;20277;-77
2023/09/28 04:56:47;;;;;;;10.50;5.53;;;15.90;74.90;;;;;;4991475;28;20210;-76
2023/09/28 04:59:13;;;;;;;8.70;6.10;;;16.00;74.20;;;;;;5008800;28;20200;-77
2023/09/28 05:01:38;;;;;;;11.93;5.40;;;16.00;73.70;;;;;;5006488;28;20207;-76
2023/09/28 05:04:04;;;;;;;7.70;5.10;;;15.80;74.00;;;;;;5011695;28;20188;-75
2023/09/28 05:06:30;;;;;;;9.50;6.17;;;15.80;74.80;;;;;;4992073;28;20204;-76
2023/09/28 05:08:56;;;;;;;10.23;6.30;;;15.70;74.80;;;;;;5003856;28;20556;-76
2023/09/28 05:11:21;;;;;;;9.73;6.43;;;15.70;74.90;;;;;;5008240;28;20186;-74
2023/09/28 05:13:47;;;;;;;10.70;6.53;;;15.70;75.20;;;;;;5003515;28;20547;-75
2023/09/28 05:16:13;;;;;;;9.27;5.80;;;15.80;75.40;;;;;;5008362;28;20213;-73
2023/09/28 05:18:39;;;;;;;8.20;5.73;;;15.80;75.40;;;;;;5011240;28;20423;-72
2023/09/28 05:21:05;;;;;;;14.23;7.07;;;15.90;75.20;;;;;;5004330;28;20211;-73
2023/09/28 05:23:31;;;;;;;8.97;5.67;;;16.00;73.90;;;;;;5009189;28;20186;-73
2023/09/28 05:25:56;;;;;;;11.33;6.43;;;16.00;73.50;;;;;;5008290;28;20835;-70
2023/09/28 05:28:22;;;;;;;10.30;5.77;;;15.90;74.00;;;;;;5007951;28;20186;-73
2023/09/28 05:30:48;;;;;;;11.90;6.57;;;15.90;74.50;;;;;;5008273;28;20264;-73
2023/09/28 05:33:13;;;;;;;11.90;6.30;;;15.90;74.50;;;;;;5004544;28;20498;-73
2023/09/28 05:35:40;;;;;;;15.00;6.93;;;15.90;74.50;;;;;;4994537;28;20310;-71
2023/09/28 05:38:05;;;;;;;8.43;5.20;;;15.90;74.50;;;;;;5008937;28;20202;-72
2023/09/28 05:40:31;;;;;;;11.20;6.40;;;15.90;74.50;;;;;;5008012;28;20428;-72
2023/09/28 05:42:57;;;;;;;9.53;5.80;;;15.90;74.00;;;;;;4998474;28;20182;-71
2023/09/28 05:45:23;;;;;;;8.60;5.83;;;16.00;74.00;;;;;;5012764;28;20512;-73
2023/09/28 05:47:49;;;;;;;9.10;6.00;;;15.90;74.20;;;;;;5008026;28;20190;-72
2023/09/28 05:50:15;;;;;;;16.73;6.37;;;16.00;74.30;;;;;;5017766;28;20247;-73
2023/09/28 05:52:41;;;;;;;11.30;6.40;;;16.00;74.30;;;;;;5019683;28;20188;-72
2023/09/28 05:55:07;;;;;;;12.20;7.03;;;16.10;73.70;;;;;;5008576;28;20537;-73
2023/09/28 05:57:32;;;;;;;11.27;6.53;;;16.10;73.50;;;;;;5012225;28;20221;-71
2023/09/28 05:59:58;;;;;;;10.03;6.43;;;16.10;73.60;;;;;;5012275;28;20447;-71
2023/09/28 06:02:24;;;;;;;10.70;6.70;;;16.20;72.90;;;;;;5012057;28;20252;-71
2023/09/28 06:04:50;;;;;;;8.40;5.80;;;16.30;72.70;;;;;;5004031;28;20185;-73
2023/09/28 06:07:15;;;;;;;9.10;5.80;;;16.30;72.70;;;;;;5009911;28;20227;-72
2023/09/28 06:09:41;;;;;;;11.17;6.57;;;16.40;72.30;;;;;;5012628;28;20448;-70
2023/09/28 06:12:07;;;;;;;8.43;5.60;;;16.40;72.00;;;;;;5013123;28;20195;-72
2023/09/28 06:14:33;;;;;;;8.70;6.20;;;16.40;72.40;;;;;;5012878;28;20425;-73
2023/09/28 06:17:00;;;;;;;9.97;6.83;;;16.50;72.40;;;;;;5009301;28;20579;-71
2023/09/28 06:19:26;;;;;;;10.37;6.87;;;16.60;72.00;;;;;;5006604;28;20430;-73
2023/09/28 06:21:52;;;;;;;15.03;6.33;;;16.60;72.00;;;;;;5005531;28;20898;-73
2023/09/28 06:24:18;;;;;;;10.67;6.00;;;16.70;71.80;;;;;;5010563;28;20635;-73
2023/09/28 06:26:43;;;;;;;9.93;6.00;;;16.70;71.40;;;;;;4993399;28;20463;-71
2023/09/28 06:29:10;;;;;;;9.57;6.10;;;16.80;71.00;;;;;;5001021;28;20444;-72
2023/09/28 06:31:36;;;;;;;13.63;6.80;;;16.70;71.30;;;;;;5010694;28;20278;-72
2023/09/28 06:34:01;;;;;;;12.23;6.50;;;16.80;70.80;;;;;;5012645;28;20460;-72
2023/09/28 06:36:28;;;;;;;11.20;6.17;;;16.80;70.70;;;;;;5009589;28;20479;-73
2023/09/28 06:38:55;;;;;;;8.90;5.77;;;16.70;71.40;;;;;;4993608;28;20596;-71
2023/09/28 06:41:21;;;;;;;13.37;6.33;;;16.80;71.70;;;;;;5008178;28;20538;-73
2023/09/28 06:43:48;;;;;;;10.70;6.57;;;16.80;71.10;;;;;;5008832;28;20413;-71
2023/09/28 06:46:14;;;;;;;10.67;6.60;;;16.90;70.70;;;;;;5004454;28;20499;-72
2023/09/28 06:48:39;;;;;;;9.60;5.67;;;16.90;70.80;;;;;;5007930;28;20421;-72
2023/09/28 06:51:05;;;;;;;11.50;6.67;;;16.80;71.00;;;;;;5009844;28;20483;-72
2023/09/28 06:53:32;;;;;;;10.47;6.77;;;16.80;71.10;;;;;;5014393;28;20209;-72
2023/09/28 06:56:01;;;;;;;15.57;8.80;;;16.80;71.60;;;;;;5010539;28;20785;-73
2023/09/28 06:58:27;;;;;;;15.07;7.93;;;16.80;72.30;;;;;;5013798;28;20998;-74
2023/09/28 07:00:53;;;;;;;12.10;6.83;;;16.90;72.40;;;;;;5017558;28;20547;-74
2023/09/28 07:03:20;;;;;;;14.50;8.60;;;16.90;72.40;;;;;;5016925;28;20220;-73
2023/09/28 07:05:46;;;;;;;12.17;7.87;;;17.00;72.40;;;;;;5011044;28;20198;-71
2023/09/28 07:08:12;;;;;;;15.07;8.40;;;17.10;72.40;;;;;;5011553;28;20447;-72
2023/09/28 07:10:38;;;;;;;14.10;7.93;;;17.20;72.10;;;;;;5012568;28;21059;-75
2023/09/28 07:13:05;;;;;;;13.40;7.50;;;17.30;72.00;;;;;;5005634;28;20421;-73
2023/09/28 07:15:33;;;;;;;13.30;7.57;;;17.30;71.80;;;;;;5004439;28;20457;-73
2023/09/28 07:17:59;;;;;;;15.47;7.13;;;17.40;71.60;;;;;;5012100;28;20497;-73
2023/09/28 07:20:26;;;;;;;11.53;7.03;;;17.40;71.60;;;;;;5011604;28;20409;-73
2023/09/28 07:22:52;;;;;;;11.73;6.60;;;17.50;71.60;;;;;;5009851;28;20497;-72
2023/09/28 07:25:19;;;;;;;10.37;6.93;;;17.60;71.00;;;;;;5011422;28;20477;-73
2023/09/28 07:27:47;;;;;;;14.17;7.97;;;17.70;70.50;;;;;;5015069;28;20430;-73
2023/09/28 07:30:14;;;;;;;15.90;7.10;;;17.80;68.90;;;;;;5019107;28;20961;-74
2023/09/28 07:32:40;;;;;;;10.20;7.20;;;17.80;69.40;;;;;;5025668;28;20463;-71
2023/09/28 07:35:09;;;;;;;13.63;7.70;;;17.80;69.40;;;;;;5022435;28;20482;-72
2023/09/28 07:37:35;;;;;;;10.83;7.03;;;17.80;69.10;;;;;;5017786;28;20421;-73
2023/09/28 07:40:01;;;;;;;14.83;7.53;;;17.90;68.90;;;;;;5023430;28;20510;-73
2023/09/28 07:42:27;;;;;;;10.20;6.70;;;17.90;68.90;;;;;;5017000;28;20481;-72
2023/09/28 07:44:53;;;;;;;14.20;7.03;;;17.90;68.80;;;;;;5015115;28;20446;-75
2023/09/28 07:47:19;;;;;;;15.70;7.50;;;17.90;68.50;;;;;;5014385;28;20300;-73
2023/09/28 07:49:47;;;;;;;15.80;7.20;;;18.00;67.70;;;;;;5007563;28;20751;-74
2023/09/28 07:52:13;;;;;;;12.60;7.07;;;18.10;68.50;;;;;;4996141;28;21030;-73
2023/09/28 07:54:39;;;;;;;14.87;7.00;;;18.10;68.50;;;;;;5011787;28;20406;-73
2023/09/28 07:57:07;;;;;;;11.50;7.30;;;18.20;68.80;;;;;;5008687;28;20492;-72
2023/09/28 07:59:34;;;;;;;10.60;7.10;;;18.20;68.60;;;;;;5010412;28;20190;-74
2023/09/28 08:02:00;;;;;;;13.10;7.80;;;18.10;68.80;;;;;;5009506;28;21005;-73
2023/09/28 08:04:26;;;;;;;13.37;7.30;;;18.20;68.50;;;;;;5012262;28;20519;-73
2023/09/28 08:06:52;;;;;;;10.73;7.80;;;18.10;68.80;;;;;;5009134;28;20526;-72
2023/09/28 08:09:19;;;;;;;15.70;7.80;;;18.20;68.80;;;;;;5012758;28;20270;-73
2023/09/28 08:11:48;;;;;;;12.43;7.17;;;18.30;68.80;;;;;;5013912;28;20877;-74
2023/09/28 08:14:15;;;;;;;16.10;8.50;;;18.30;68.50;;;;;;5011480;28;20490;-74
2023/09/28 08:16:44;;;;;;;11.70;6.93;;;18.30;68.50;;;;;;5011469;28;21343;-75
2023/09/28 08:19:10;;;;;;;13.10;6.90;;;18.50;68.30;;;;;;5014712;28;20422;-73
2023/09/28 08:21:38;;;;;;;12.63;7.13;;;18.60;68.00;;;;;;5014462;28;21024;-73
2023/09/28 08:24:07;;;;;;;12.83;7.47;;;18.70;67.90;;;;;;5014658;28;20436;-72
2023/09/28 08:26:34;;;;;;;17.57;6.80;;;18.70;67.60;;;;;;5002243;28;20463;-72
2023/09/28 08:29:01;;;;;;;12.30;7.40;;;18.70;67.50;;;;;;5013881;28;20945;-73
2023/09/28 08:31:27;;;;;;;13.73;7.97;;;18.80;67.70;;;;;;5016511;28;20845;-75
2023/09/28 08:33:53;;;;;;;9.93;7.10;;;18.80;67.70;;;;;;5014269;28;20493;-73
2023/09/28 08:36:19;;;;;;;11.13;7.57;;;18.80;67.70;;;;;;5012650;28;20220;-72
2023/09/28 08:38:46;;;;;;;13.33;7.80;;;18.80;67.60;;;;;;5013984;28;20428;-75
2023/09/28 08:41:14;;;;;;;12.73;7.87;;;18.80;67.70;;;;;;5017576;28;20247;-71
2023/09/28 08:43:46;;;;;;;11.90;7.43;;;18.90;67.60;;;;;;5014459;28;20407;-74
2023/09/28 08:46:13;;;;;;;13.67;7.43;;;19.00;67.20;;;;;;5010064;28;20481;-73
2023/09/28 08:48:44;;;;;;;13.30;7.33;;;18.90;67.50;;;;;;5012735;28;20432;-74
2023/09/28 08:51:11;;;;;;;11.70;6.60;;;19.00;67.50;;;;;;5011599;28;20435;-74
2023/09/28 08:53:38;;;;;;;11.73;7.20;;;19.00;67.70;;;;;;5010937;28;20419;-72
2023/09/28 08:56:05;;;;;;;16.87;8.27;;;19.00;67.70;;;;;;5012743;28;20461;-72
2023/09/28 08:58:34;;;;;;;20.00;8.10;;;19.10;67.70;;;;;;5007853;28;20715;-72
2023/09/28 09:01:01;;;;;;;18.73;7.67;;;19.20;67.60;;;;;;5019171;28;20575;-73
2023/09/28 09:03:28;;;;;;;12.70;7.60;;;19.40;67.20;;;;;;5022026;28;20452;-72
2023/09/28 09:05:55;;;;;;;20.03;7.73;;;19.50;67.00;;;;;;5010468;28;20576;-72
2023/09/28 09:08:22;;;;;;;9.50;6.80;;;19.60;66.70;;;;;;5012358;28;20436;-73
2023/09/28 09:10:52;;;;;;;13.33;6.73;;;19.70;66.40;;;;;;5010982;28;20422;-73
2023/09/28 09:13:19;;;;;;;13.53;7.63;;;19.80;66.10;;;;;;5011875;28;20417;-73
2023/09/28 09:15:45;;;;;;;11.97;6.90;;;19.90;65.80;;;;;;5007239;28;20523;-73
2023/09/28 09:18:21;;;;;;;16.90;7.20;;;20.10;65.00;;;;;;5012469;28;20526;-72
2023/09/28 09:20:48;;;;;;;13.43;6.93;;;20.20;64.50;;;;;;5012844;28;20604;-73
2023/09/28 09:23:15;;;;;;;11.50;6.47;;;20.30;64.40;;;;;;5009350;28;20504;-73
2023/09/28 09:25:41;;;;;;;11.33;6.40;;;20.40;63.90;;;;;;5004838;28;21152;-73
2023/09/28 09:28:07;;;;;;;18.03;6.50;;;20.40;63.90;;;;;;5012589;28;20634;-73
2023/09/28 09:30:37;;;;;;;13.23;7.20;;;20.60;63.80;;;;;;5006183;28;20551;-73
2023/09/28 09:33:04;;;;;;;9.67;5.33;;;20.70;63.40;;;;;;5015205;28;20188;-74
2023/09/28 09:35:31;;;;;;;13.23;6.10;;;20.80;63.20;;;;;;5014247;28;20494;-73
2023/09/28 09:37:56;;;;;;;9.70;5.93;;;20.90;62.50;;;;;;5015998;28;20802;-74
2023/09/28 09:40:22;;;;;;;9.30;6.40;;;21.10;62.20;;;;;;5008554;28;20430;-74
2023/09/28 09:42:48;;;;;;;11.10;5.90;;;21.10;62.20;;;;;;5017706;28;20310;-74
2023/09/28 09:45:13;;;;;;;10.60;5.90;;;21.20;62.20;;;;;;5012685;28;20213;-73
2023/09/28 09:47:49;;;;;;;10.40;6.10;;;21.30;62.00;;;;;;5010367;28;20181;-72
2023/09/28 09:50:16;;;;;;;11.83;5.90;;;21.40;61.90;;;;;;5007304;28;20188;-73
2023/09/28 09:52:43;;;;;;;9.43;5.43;;;21.60;61.90;;;;;;5008701;28;20446;-74
2023/09/28 09:55:09;;;;;;;8.57;5.13;;;21.70;62.20;;;;;;5010131;28;20477;-73
2023/09/28 09:57:42;;;;;;;9.00;6.40;;;21.90;62.20;;;;;;5013146;28;20519;-74
2023/09/28 10:00:09;;;;;;;7.83;5.60;;;22.10;62.00;;;;;;5005548;28;20672;-73
2023/09/28 10:02:40;;;;;;;9.23;5.40;;;22.30;62.00;;;;;;5011143;28;20473;-74
2023/09/28 10:05:09;;;;;;;11.17;5.67;;;22.40;61.90;;;;;;5002171;28;20572;-73
2023/09/28 10:07:37;;;;;;;11.43;6.17;;;22.40;62.00;;;;;;5010148;28;20447;-73
2023/09/28 10:10:04;;;;;;;11.87;6.40;;;22.50;61.90;;;;;;5010258;28;20899;-73
2023/09/28 10:12:30;;;;;;;9.80;5.17;;;22.60;61.70;;;;;;5008163;28;20919;-72
2023/09/28 10:14:58;;;;;;;11.40;6.90;;;22.70;61.30;;;;;;5008830;28;20438;-73
2023/09/28 10:17:25;;;;;;;10.40;5.60;;;22.90;60.90;;;;;;5008819;28;20193;-73
2023/09/28 10:19:59;;;;;;;19.17;6.20;;;23.00;59.90;;;;;;5002109;28;20462;-72
2023/09/28 10:22:25;;;;;;;9.83;5.67;;;23.10;60.00;;;;;;5005362;28;20468;-73
2023/09/28 10:24:50;;;;;;;11.37;4.90;;;23.20;60.10;;;;;;5010649;28;20427;-72
2023/09/28 10:27:17;;;;;;;8.20;5.73;;;23.30;59.10;;;;;;5013332;28;20203;-74
2023/09/28 10:29:43;;;;;;;9.17;5.90;;;23.40;59.10;;;;;;5021336;28;20205;-74
2023/09/28 10:32:28;;;;;;;9.13;5.47;;;23.70;58.50;;;;;;5017381;28;20443;-71
2023/09/28 10:35:20;;;;;;;11.03;5.30;;;24.20;57.70;;;;;;4990512;28;20448;-73
2023/09/28 10:38:22;;;;;;;11.33;5.27;;;24.70;56.20;;;;;;5009748;28;20939;-73
2023/09/28 10:41:08;;;;;;;13.70;5.53;;;25.30;55.40;;;;;;5002706;28;20600;-73
2023/09/28 10:43:39;;;;;;;8.07;5.50;;;26.00;52.90;;;;;;5012894;28;20440;-74
2023/09/28 10:46:05;;;;;;;10.07;5.13;;;26.60;52.50;;;;;;5012642;28;20989;-74
2023/09/28 10:48:37;;;;;;;10.77;5.83;;;27.00;51.30;;;;;;5014481;28;20429;-74
2023/09/28 10:51:11;;;;;;;8.77;5.10;;;27.20;50.70;;;;;;5015257;28;20487;-73
2023/09/28 10:53:36;;;;;;;7.90;5.30;;;27.20;50.20;;;;;;5015588;28;20421;-72
2023/09/28 10:56:04;;;;;;;11.27;6.00;;;27.20;50.50;;;;;;5011775;28;20475;-74
2023/09/28 10:58:30;;;;;;;7.73;4.57;;;27.50;50.50;;;;;;5012491;28;20264;-71
2023/09/28 11:00:56;;;;;;;9.60;5.40;;;27.30;48.70;;;;;;5012347;28;21077;-72
2023/09/28 11:03:22;;;;;;;6.27;4.90;;;27.20;49.50;;;;;;5014211;28;20258;-74
2023/09/28 11:05:48;;;;;;;7.20;4.83;;;27.10;49.10;;;;;;5010749;28;20496;-74
2023/09/28 11:08:14;;;;;;;8.70;5.00;;;27.10;48.60;;;;;;5016174;28;20194;-73
2023/09/28 11:10:40;;;;;;;10.70;5.27;;;27.20;48.60;;;;;;5014110;28;20178;-72
2023/09/28 11:13:06;;;;;;;10.93;5.80;;;27.50;47.90;;;;;;5010619;28;20421;-72
2023/09/28 11:15:32;;;;;;;8.57;5.37;;;27.70;48.50;;;;;;5011880;28;20444;-73
2023/09/28 11:17:58;;;;;;;8.40;4.90;;;28.00;47.70;;;;;;5010074;28;20183;-75
2023/09/28 11:20:26;;;;;;;11.30;5.20;;;28.20;46.20;;;;;;5016109;28;20260;-74
2023/09/28 11:22:56;;;;;;;10.93;5.87;;;28.10;46.60;;;;;;5015670;28;20710;-72
2023/09/28 11:25:22;;;;;;;14.23;5.40;;;28.10;45.90;;;;;;5010269;28;20484;-73
2023/09/28 11:27:48;;;;;;;11.33;5.50;;;28.10;45.00;;;;;;5012387;28;20444;-72
2023/09/28 11:30:19;;;;;;;8.00;5.00;;;27.90;46.20;;;;;;5008010;28;20190;-73
2023/09/28 11:32:50;;;;;;;7.13;4.33;;;27.60;45.00;;;;;;5018422;28;20197;-73
2023/09/28 11:35:16;;;;;;;9.97;5.60;;;27.30;45.70;;;;;;5014386;28;20567;-74
2023/09/28 11:37:42;;;;;;;7.33;4.23;;;27.40;45.70;;;;;;5017100;28;20428;-73
2023/09/28 11:40:09;;;;;;;7.23;4.50;;;27.70;45.50;;;;;;5007522;28;20414;-74
2023/09/28 11:42:38;;;;;;;6.60;4.03;;;27.90;44.50;;;;;;5008468;28;20249;-72
2023/09/28 11:45:05;;;;;;;9.00;4.50;;;28.00;44.20;;;;;;5008587;28;20592;-73
2023/09/28 11:47:30;;;;;;;6.60;4.67;;;28.30;43.80;;;;;;5010104;28;20436;-72
2023/09/28 11:49:56;;;;;;;11.50;4.10;;;28.70;42.20;;;;;;5009882;28;20791;-74
2023/09/28 11:52:21;;;;;;;7.20;4.60;;;28.60;41.80;;;;;;5015525;28;20182;-72
2023/09/28 11:54:47;;;;;;;8.13;4.77;;;28.60;41.90;;;;;;5015081;28;20174;-71
2023/09/28 11:57:16;;;;;;;7.57;4.10;;;28.80;41.50;;;;;;4998371;28;20221;-74
2023/09/28 11:59:42;;;;;;;9.90;4.53;;;28.90;41.00;;;;;;5020082;28;20440;-75
2023/09/28 12:02:08;;;;;;;8.97;4.60;;;29.10;41.40;;;;;;5021008;28;20968;-74
2023/09/28 12:04:35;;;;;;;7.20;4.53;;;29.40;41.20;;;;;;5018418;28;20413;-74
2023/09/28 12:07:06;;;;;;;8.07;3.87;;;29.80;39.50;;;;;;5016160;28;20206;-73
2023/09/28 12:09:32;;;;;;;8.37;4.17;;;30.10;39.00;;;;;;5020316;28;20425;-72
2023/09/28 12:11:58;;;;;;;6.30;3.60;;;30.20;38.20;;;;;;5016961;28;20436;-73
2023/09/28 12:14:24;;;;;;;6.10;3.50;;;30.10;38.70;;;;;;5016005;28;20425;-72
2023/09/28 12:16:50;;;;;;;4.27;3.67;;;30.50;38.60;;;;;;4994554;28;20475;-74
2023/09/28 12:19:16;;;;;;;5.53;3.70;;;30.80;38.30;;;;;;5008057;28;20186;-73
2023/09/28 12:21:41;;;;;;;7.00;3.80;;;31.00;36.00;;;;;;5012408;28;20918;-73
2023/09/28 12:24:07;;;;;;;6.07;3.87;;;31.20;36.30;;;;;;5012554;28;20189;-75
2023/09/28 12:26:34;;;;;;;5.40;3.73;;;31.20;36.80;;;;;;5008057;28;20218;-73
2023/09/28 12:29:00;;;;;;;5.10;3.43;;;31.40;37.40;;;;;;5014089;28;20204;-73
2023/09/28 12:31:25;;;;;;;4.70;3.20;;;31.40;34.70;;;;;;5013438;28;20425;-73
2023/09/28 12:33:51;;;;;;;6.50;3.90;;;31.20;36.60;;;;;;5009318;28;20460;-73
2023/09/28 12:36:16;;;;;;;5.80;3.37;;;31.20;35.10;;;;;;5010706;28;20717;-74
2023/09/28 12:38:42;;;;;;;5.93;3.93;;;31.20;35.30;;;;;;5013069;28;21227;-74
2023/09/28 12:41:09;;;;;;;5.90;3.73;;;31.10;34.70;;;;;;5014247;28;20213;-73